Time;durP1;ratioP1;P1;durP2;ratioP2;P2;SDS_P1;SDS_P2;PMS_P1;PMS_P2;Temp;Humidity;BMP_temperature;BMP_pressure;BME280_temperature;BME280_humidity;BME280_pressure;Samples;Min_cycle;Max_cycle;Signal;HPM_P1;HPM_P2
2023/05/17 00:00:49;;;;;;;17.25;13.75;;;;;;;13.78;100.00;100882.75;5072188;28;20056;-79
2023/05/17 00:03:14;;;;;;;21.13;13.82;;;;;;;13.81;100.00;101066.69;5054417;28;20410;-79
2023/05/17 00:05:39;;;;;;;24.80;13.90;;;;;;;14.26;100.00;101239.50;5054787;28;20055;-78
2023/05/17 00:08:05;;;;;;;25.23;15.20;;;;;;;13.86;100.00;101256.63;5071758;28;20032;-77
2023/05/17 00:10:30;;;;;;;20.08;14.55;;;;;;;13.97;100.00;101366.31;5071929;28;20146;-78
2023/05/17 00:12:56;;;;;;;20.10;15.63;;;;;;;13.93;100.00;101485.72;5072158;28;20028;-76
2023/05/17 00:15:21;;;;;;;20.77;15.13;;;;;;;13.96;100.00;101634.00;5071969;28;20485;-77
2023/05/17 00:17:46;;;;;;;27.63;17.15;;;;;;;13.36;100.00;101730.22;5054455;28;20031;-78
2023/05/17 00:20:12;;;;;;;25.58;15.63;;;;;;;13.61;100.00;101940.34;5071750;28;20035;-78
2023/05/17 00:22:39;;;;;;;23.65;15.93;;;;;;;13.85;100.00;102168.56;5054360;28;20073;-77
2023/05/17 00:25:05;;;;;;;25.70;15.35;;;;;;;13.83;100.00;102313.50;5071927;28;20623;-76
2023/05/17 00:27:31;;;;;;;20.60;14.23;;;;;;;13.67;100.00;102485.69;5072273;28;20430;-80
2023/05/17 00:29:56;;;;;;;20.25;14.40;;;;;;;13.68;100.00;102622.91;5071470;28;20028;-77
2023/05/17 00:32:21;;;;;;;18.90;13.50;;;;;;;13.33;100.00;102651.78;5072458;28;20066;-78
2023/05/17 00:34:47;;;;;;;18.60;12.20;;;;;;;13.12;100.00;102728.31;5053943;28;20119;-78
2023/05/17 00:37:13;;;;;;;16.17;11.48;;;;;;;13.19;100.00;102832.25;5054143;28;20101;-78
2023/05/17 00:39:39;;;;;;;16.10;11.75;;;;;;;13.70;100.00;103007.31;5071982;28;20035;-76
2023/05/17 00:42:05;;;;;;;16.30;10.43;;;;;;;13.51;100.00;103015.66;5054274;28;20024;-78
2023/05/17 00:44:30;;;;;;;15.70;9.65;;;;;;;13.61;100.00;103065.16;5072201;28;20028;-77
2023/05/17 00:47:05;;;;;;;16.25;9.05;;;;;;;14.17;100.00;103255.03;5071783;28;20090;-76
2023/05/17 00:49:30;;;;;;;14.98;8.50;;;;;;;14.59;100.00;103384.38;5071889;28;20113;-77
2023/05/17 00:51:57;;;;;;;21.38;9.15;;;;;;;14.66;100.00;103485.19;5072342;28;20025;-75
2023/05/17 00:54:24;;;;;;;17.65;9.07;;;;;;;14.56;100.00;103524.31;5074753;28;20052;-76
2023/05/17 00:56:51;;;;;;;16.75;9.18;;;;;;;14.29;100.00;103570.06;5075502;28;20491;-76
2023/05/17 00:59:16;;;;;;;13.55;9.25;;;;;;;14.50;100.00;103712.06;5057642;28;20048;-76
2023/05/17 01:01:43;;;;;;;12.68;8.55;;;;;;;14.03;100.00;103738.53;5074615;28;20054;-76
2023/05/17 01:04:09;;;;;;;15.27;9.27;;;;;;;14.59;100.00;103906.91;5055345;28;20490;-75
2023/05/17 01:06:37;;;;;;;13.98;9.32;;;;;;;14.59;100.00;103972.63;5036792;28;20128;-76
2023/05/17 01:09:04;;;;;;;18.10;9.82;;;;;;;14.43;100.00;104001.31;5055569;28;20039;-75
2023/05/17 01:11:51;;;;;;;16.63;9.60;;;;;;;14.67;100.00;104091.50;5055118;28;20075;-76
2023/05/17 01:14:17;;;;;;;15.48;9.90;;;;;;;14.71;100.00;104130.03;5055168;28;20036;-76
2023/05/17 01:16:55;;;;;;;17.20;9.80;;;;;;;14.05;100.00;103999.59;5054527;28;20025;-75
2023/05/17 01:19:29;;;;;;;16.75;9.35;;;;;;;14.65;100.00;104108.53;5054296;28;20040;-75
2023/05/17 01:22:09;;;;;;;15.68;10.25;;;;;;;14.78;100.00;104092.56;5054907;28;20064;-75
2023/05/17 01:24:59;;;;;;;14.63;9.80;;;;;;;14.70;100.00;104020.69;5055152;28;20121;-75
2023/05/17 01:27:27;;;;;;;16.98;10.52;;;;;;;14.51;100.00;103954.56;5037538;28;20024;-75
2023/05/17 01:29:55;;;;;;;18.52;11.07;;;;;;;14.51;100.00;103933.19;5054966;28;20029;-75
2023/05/17 01:32:21;;;;;;;13.90;9.80;;;;;;;14.02;100.00;103800.78;5055013;28;20119;-75
2023/05/17 01:34:46;;;;;;;14.23;10.20;;;;;;;14.29;100.00;103815.81;5054961;28;20119;-76
2023/05/17 01:37:12;;;;;;;14.68;9.95;;;;;;;14.21;100.00;103767.00;5036749;28;20475;-74
2023/05/17 01:39:37;;;;;;;15.77;10.15;;;;;;;13.78;100.00;103645.13;5060541;28;20021;-76
2023/05/17 01:42:28;;;;;;;13.90;10.32;;;;;;;13.84;100.00;103627.28;5074798;28;20359;-75
2023/05/17 01:45:07;;;;;;;14.68;10.05;;;;;;;13.96;100.00;103629.22;5074815;28;20032;-76
2023/05/17 01:47:47;;;;;;;15.95;10.68;;;;;;;13.95;100.00;103586.56;5074697;28;20028;-75
2023/05/17 01:50:20;;;;;;;14.20;10.82;;;;;;;13.52;100.00;103474.16;5054657;28;20115;-75
2023/05/17 01:52:54;;;;;;;18.75;11.02;;;;;;;13.79;100.00;103485.69;5074259;28;20506;-75
2023/05/17 01:56:00;;;;;;;13.80;9.98;;;;;;;13.69;100.00;103436.91;5074134;28;20035;-76
2023/05/17 01:58:29;;;;;;;13.82;10.32;;;;;;;13.85;100.00;103410.72;5056795;28;20040;-76
2023/05/17 02:00:56;;;;;;;13.02;10.60;;;;;;;14.12;100.00;103423.03;5073862;28;20098;-76
2023/05/17 02:03:23;;;;;;;14.45;10.90;;;;;;;13.86;100.00;103351.91;5055873;28;20040;-75
2023/05/17 02:05:48;;;;;;;18.08;11.00;;;;;;;13.64;100.00;103298.78;5073672;28;20496;-75
2023/05/17 02:08:14;;;;;;;13.93;11.20;;;;;;;13.96;100.00;103341.78;5055931;28;20024;-76
2023/05/17 02:10:39;;;;;;;17.55;11.50;;;;;;;14.08;100.00;103373.53;5074120;28;20036;-76
2023/05/17 02:13:05;;;;;;;15.25;11.68;;;;;;;13.79;100.00;103304.06;5073640;28;20036;-75
2023/05/17 02:15:31;;;;;;;13.30;10.80;;;;;;;14.13;100.00;103353.09;5055646;28;20029;-75
2023/05/17 02:17:56;;;;;;;15.07;11.95;;;;;;;13.61;100.00;103247.59;5073905;28;20032;-76
2023/05/17 02:20:22;;;;;;;17.50;12.18;;;;;;;13.61;100.00;103237.34;5073522;28;20090;-75
2023/05/17 02:22:47;;;;;;;14.40;11.38;;;;;;;13.56;100.00;103235.59;5073789;28;20024;-76
2023/05/17 02:25:13;;;;;;;14.55;11.10;;;;;;;13.48;100.00;103215.03;5073548;28;20021;-74
2023/05/17 02:27:39;;;;;;;18.48;11.52;;;;;;;13.52;100.00;103218.50;5073263;28;20021;-74
2023/05/17 02:30:05;;;;;;;16.73;11.48;;;;;;;13.90;100.00;103273.50;5072404;28;20032;-75
2023/05/17 02:32:31;;;;;;;13.25;10.93;;;;;;;13.60;100.00;103219.44;5073571;28;20024;-76
2023/05/17 02:34:57;;;;;;;13.90;11.05;;;;;;;13.75;100.00;103219.59;5055757;28;20029;-75
2023/05/17 02:37:23;;;;;;;19.13;12.27;;;;;;;14.05;100.00;103252.34;5072714;28;20419;-75
2023/05/17 02:39:48;;;;;;;15.15;12.15;;;;;;;13.93;100.00;103214.69;5055478;28;20051;-76
2023/05/17 02:42:14;;;;;;;19.42;11.80;;;;;;;13.71;100.00;103157.34;5073233;28;20028;-76
2023/05/17 02:44:39;;;;;;;16.05;11.98;;;;;;;14.09;100.00;103197.78;5054933;28;20036;-76
2023/05/17 02:47:05;;;;;;;16.50;12.55;;;;;;;13.83;100.00;103142.13;5048996;28;20039;-75
2023/05/17 02:49:30;;;;;;;18.10;12.93;;;;;;;13.79;100.00;103154.88;5053188;28;20061;-75
2023/05/17 02:51:56;;;;;;;17.20;12.63;;;;;;;14.10;100.00;103230.22;5051678;28;20031;-76
2023/05/17 02:54:21;;;;;;;17.10;13.63;;;;;;;13.93;100.00;103218.13;5052202;28;20032;-76
2023/05/17 02:56:47;;;;;;;18.67;13.18;;;;;;;13.97;100.00;103225.81;5051543;28;20037;-75
2023/05/17 02:59:12;;;;;;;16.17;13.10;;;;;;;14.43;100.00;103307.38;5034225;28;20059;-76
2023/05/17 03:01:39;;;;;;;19.35;13.77;;;;;;;13.98;100.00;103233.53;5051554;28;20444;-76
2023/05/17 03:04:05;;;;;;;19.08;12.98;;;;;;;14.23;100.00;103265.31;5034753;28;20032;-76
2023/05/17 03:06:30;;;;;;;18.73;12.93;;;;;;;13.56;100.00;103172.53;5052280;28;20028;-75
2023/05/17 03:08:55;;;;;;;15.90;11.98;;;;;;;13.88;100.00;103231.72;5051166;28;20071;-75
2023/05/17 03:11:21;;;;;;;16.40;11.95;;;;;;;14.15;100.00;103283.16;5051713;28;20504;-76
2023/05/17 03:13:50;;;;;;;18.48;11.63;;;;;;;14.17;100.00;103285.75;5052296;28;20032;-75
2023/05/17 03:16:16;;;;;;;13.15;11.75;;;;;;;14.18;100.00;103282.34;5052181;28;20033;-75
2023/05/17 03:18:42;;;;;;;16.02;12.20;;;;;;;13.83;100.00;103226.53;5052299;28;20032;-76
2023/05/17 03:21:07;;;;;;;16.00;12.20;;;;;;;14.07;100.00;103273.69;5052500;28;20132;-75
2023/05/17 03:23:33;;;;;;;19.83;12.20;;;;;;;14.29;100.00;103322.59;5052087;28;20040;-75
2023/05/17 03:25:59;;;;;;;24.48;13.15;;;;;;;14.25;100.00;103312.28;5051902;28;20487;-74
2023/05/17 03:28:25;;;;;;;17.25;13.38;;;;;;;14.25;100.00;103312.28;5060203;28;20028;-74
2023/05/17 03:30:51;;;;;;;15.68;12.43;;;;;;;14.28;100.00;103317.47;5054075;28;20399;-74
2023/05/17 03:33:18;;;;;;;17.65;13.80;;;;;;;13.98;100.00;103271.91;5068497;28;20064;-76
2023/05/17 03:35:45;;;;;;;16.02;12.63;;;;;;;13.68;100.00;103217.84;5054286;28;20032;-74
2023/05/17 03:38:11;;;;;;;21.73;13.35;;;;;;;13.99;100.00;103260.81;5071712;28;20120;-77
2023/05/17 03:40:36;;;;;;;18.58;14.77;;;;;;;14.18;100.00;103295.97;5072034;28;20063;-74
2023/05/17 03:43:02;;;;;;;19.17;14.35;;;;;;;14.24;100.00;103316.53;5071357;28;20521;-77
2023/05/17 03:45:29;;;;;;;20.48;14.15;;;;;;;14.00;100.00;103264.25;5071727;28;20040;-74
2023/05/17 03:47:55;;;;;;;17.40;12.35;;;;;;;13.96;100.00;103250.56;5070540;28;20025;-82
2023/05/17 03:50:21;;;;;;;16.55;13.10;;;;;;;14.05;100.00;103242.97;5054565;28;20758;-76
2023/05/17 03:52:47;;;;;;;15.90;12.45;;;;;;;14.09;100.00;103231.94;5070729;28;20498;-76
2023/05/17 03:55:12;;;;;;;17.75;12.25;;;;;;;14.57;100.00;103288.75;5071003;28;20123;-74
2023/05/17 03:57:38;;;;;;;18.75;13.25;;;;;;;14.47;100.00;103261.34;5054276;28;20072;-77
2023/05/17 04:00:09;;;;;;;16.92;13.13;;;;;;;14.46;100.00;103240.84;5067408;28;20396;-76
2023/05/17 04:02:35;;;;;;;16.92;13.98;;;;;;;14.41;100.00;103222.00;5034416;28;20130;-76
2023/05/17 04:05:00;;;;;;;17.02;14.18;;;;;;;14.25;100.00;103189.41;5051349;28;20457;-75
2023/05/17 04:07:26;;;;;;;18.35;13.20;;;;;;;14.84;100.00;103272.72;5057244;28;20025;-77
2023/05/17 04:09:52;;;;;;;18.50;12.40;;;;;;;14.71;100.00;103224.81;5066633;28;20063;-76
2023/05/17 04:12:17;;;;;;;19.13;12.30;;;;;;;14.58;100.00;103184.59;5053478;28;20085;-79
2023/05/17 04:14:42;;;;;;;19.48;13.85;;;;;;;14.63;100.00;103181.22;5071091;28;20040;-76
2023/05/17 04:17:08;;;;;;;20.60;13.77;;;;;;;14.80;100.00;103170.25;5053582;28;20025;-74
2023/05/17 04:19:33;;;;;;;20.27;13.27;;;;;;;14.30;100.00;103065.75;5071289;28;20422;-81
2023/05/17 04:21:59;;;;;;;18.38;12.68;;;;;;;14.32;100.00;103078.59;5071477;28;20025;-78
2023/05/17 04:24:24;;;;;;;22.05;12.68;;;;;;;14.81;100.00;103151.44;5053996;28;20021;-75
2023/05/17 04:26:50;;;;;;;17.17;12.50;;;;;;;14.82;100.00;103153.16;5054179;28;20033;-76
2023/05/17 04:29:15;;;;;;;22.63;14.32;;;;;;;14.65;100.00;103122.34;5074457;28;20028;-77
2023/05/17 04:31:41;;;;;;;19.52;12.80;;;;;;;14.42;100.00;103109.38;5057506;28;20072;-73
2023/05/17 04:34:07;;;;;;;15.35;12.57;;;;;;;14.27;100.00;103104.13;5075251;28;20055;-74
2023/05/17 04:36:32;;;;;;;19.63;12.65;;;;;;;14.10;100.00;103094.59;5073623;28;20032;-74
2023/05/17 04:38:57;;;;;;;18.42;12.60;;;;;;;14.59;100.00;103210.22;5054370;28;20036;-73
2023/05/17 04:41:23;;;;;;;20.92;12.50;;;;;;;14.25;100.00;103182.59;5054587;28;20033;-75
2023/05/17 04:43:48;;;;;;;19.35;13.10;;;;;;;14.51;100.00;103246.84;5055299;28;20032;-77
2023/05/17 04:46:14;;;;;;;18.38;13.57;;;;;;;14.42;100.00;103257.03;5074278;28;20028;-76
2023/05/17 04:48:40;;;;;;;17.88;13.15;;;;;;;13.87;100.00;103168.59;5057431;28;20032;-73
2023/05/17 04:51:06;;;;;;;16.92;12.43;;;;;;;14.16;100.00;103225.19;5074976;28;20035;-76
2023/05/17 04:53:32;;;;;;;15.50;11.55;;;;;;;14.69;100.00;103324.72;5075313;28;20028;-76
2023/05/17 04:55:58;;;;;;;16.63;12.05;;;;;;;14.54;100.00;103304.06;5074328;28;20043;-76
2023/05/17 04:58:23;;;;;;;18.17;11.45;;;;;;;14.58;100.00;103302.38;5057367;28;20024;-75
2023/05/17 05:00:49;;;;;;;17.05;11.60;;;;;;;14.67;100.00;103320.41;5040067;28;20183;-76
2023/05/17 05:03:15;;;;;;;15.73;11.70;;;;;;;14.60;100.00;103309.25;5034142;28;20041;-76
2023/05/17 05:05:42;;;;;;;14.80;11.20;;;;;;;14.72;100.00;103317.06;5035362;28;20029;-75
2023/05/17 05:08:09;;;;;;;19.08;11.43;;;;;;;14.60;100.00;103306.69;5034770;28;20131;-76
2023/05/17 05:10:35;;;;;;;22.33;13.10;;;;;;;14.97;100.00;103376.19;5034608;28;20428;-77
2023/05/17 05:13:00;;;;;;;18.17;12.55;;;;;;;14.52;100.00;103310.00;5033531;28;20095;-76
2023/05/17 05:15:26;;;;;;;19.30;13.10;;;;;;;15.20;100.00;103426.81;5034561;28;20040;-76
2023/05/17 05:17:51;;;;;;;20.60;12.57;;;;;;;15.03;100.00;103397.63;5035436;28;20029;-77
2023/05/17 05:20:16;;;;;;;20.10;13.07;;;;;;;14.88;100.00;103376.97;5033082;28;20030;-76
2023/05/17 05:22:42;;;;;;;22.52;13.48;;;;;;;14.65;100.00;103338.34;5034686;28;20025;-77
2023/05/17 05:25:08;;;;;;;21.45;13.73;;;;;;;14.79;100.00;103341.03;5033858;28;20022;-77
2023/05/17 05:27:34;;;;;;;19.77;13.35;;;;;;;14.95;100.00;103363.38;5033440;28;20030;-78
2023/05/17 05:30:00;;;;;;;20.08;13.60;;;;;;;14.94;100.00;103336.03;5033740;28;20038;-77
2023/05/17 05:32:25;;;;;;;22.00;13.23;;;;;;;14.64;100.00;103271.72;5033121;28;20041;-76
2023/05/17 05:34:51;;;;;;;20.38;12.93;;;;;;;15.10;100.00;103345.56;5050455;28;20075;-76
2023/05/17 05:37:18;;;;;;;19.35;13.25;;;;;;;15.25;100.00;103349.94;5034703;28;20029;-76
2023/05/17 05:39:44;;;;;;;21.65;13.30;;;;;;;14.75;100.00;103285.47;5034087;28;20029;-77
2023/05/17 05:42:09;;;;;;;19.98;12.20;;;;;;;15.06;100.00;103331.00;5034826;28;20040;-77
2023/05/17 05:44:35;;;;;;;17.63;12.35;;;;;;;15.24;100.00;103358.47;5034906;28;20026;-76
2023/05/17 05:47:00;;;;;;;17.42;12.38;;;;;;;14.93;100.00;103295.88;5034511;28;20036;-76
2023/05/17 05:49:25;;;;;;;20.38;12.05;;;;;;;15.09;100.00;103304.53;5032928;28;20483;-75
2023/05/17 05:51:51;;;;;;;20.52;12.38;;;;;;;14.99;100.00;103269.44;5033645;28;20033;-76
2023/05/17 05:54:16;;;;;;;20.08;11.48;;;;;;;14.96;100.00;103257.44;5033439;28;20140;-76
2023/05/17 05:56:42;;;;;;;15.50;10.90;;;;;;;14.84;100.00;103218.94;5034365;28;20037;-75
2023/05/17 05:59:07;;;;;;;14.95;10.35;;;;;;;15.44;100.00;103287.69;5034475;28;20519;-75
2023/05/17 06:01:33;;;;;;;18.70;11.85;;;;;;;15.29;100.00;103262.78;5073761;28;20033;-76
2023/05/17 06:03:58;;;;;;;15.77;11.60;;;;;;;15.45;100.00;103259.47;5056001;28;20035;-75
2023/05/17 06:06:23;;;;;;;21.52;11.20;;;;;;;15.50;100.00;103246.69;5073914;28;20509;-76
2023/05/17 06:08:49;;;;;;;19.23;12.65;;;;;;;15.16;100.00;103161.03;5055653;28;20043;-76
2023/05/17 06:11:15;;;;;;;16.63;11.48;;;;;;;15.36;100.00;103171.38;5073472;28;20040;-76
2023/05/17 06:13:40;;;;;;;15.82;11.48;;;;;;;14.98;100.00;103107.13;5055779;28;20029;-75
2023/05/17 06:16:05;;;;;;;18.52;11.50;;;;;;;15.56;100.00;103178.31;5055974;28;20407;-75
2023/05/17 06:18:32;;;;;;;18.33;11.40;;;;;;;15.24;100.00;103102.09;5073494;28;20090;-76
2023/05/17 06:20:57;;;;;;;16.45;11.95;;;;;;;15.72;100.00;103181.78;5073612;28;20036;-76
2023/05/17 06:23:23;;;;;;;20.00;12.35;;;;;;;15.43;100.00;103111.59;5072976;28;20036;-76
2023/05/17 06:25:48;;;;;;;18.77;12.32;;;;;;;15.34;100.00;103091.88;5073459;28;20017;-76
2023/05/17 06:28:14;;;;;;;18.45;12.40;;;;;;;15.37;100.00;103073.09;5073543;28;20032;-76
2023/05/17 06:30:39;;;;;;;19.80;12.88;;;;;;;15.66;100.00;103125.31;5055315;28;20036;-76
2023/05/17 06:33:05;;;;;;;20.83;14.05;;;;;;;15.78;100.00;103129.63;5073263;28;20461;-75
2023/05/17 06:35:30;;;;;;;20.42;13.13;;;;;;;15.54;100.00;103074.88;5073841;28;20066;-76
2023/05/17 06:37:56;;;;;;;20.13;14.05;;;;;;;15.45;100.00;103062.00;5072970;28;20024;-76
2023/05/17 06:40:21;;;;;;;21.30;14.48;;;;;;;15.28;100.00;103016.66;5055381;28;20131;-75
2023/05/17 06:42:47;;;;;;;20.90;13.15;;;;;;;15.53;100.00;103044.06;5072601;28;20041;-75
2023/05/17 06:45:12;;;;;;;20.02;13.55;;;;;;;15.54;100.00;103044.09;5054985;28;20029;-75
2023/05/17 06:47:38;;;;;;;22.33;13.93;;;;;;;15.64;100.00;103044.94;5055010;28;20071;-76
2023/05/17 06:50:05;;;;;;;21.35;13.77;;;;;;;15.63;100.00;103025.25;5072355;28;20054;-75
2023/05/17 06:52:30;;;;;;;18.83;13.27;;;;;;;15.58;100.00;103011.59;5072175;28;20064;-76
2023/05/17 06:54:55;;;;;;;22.38;13.63;;;;;;;16.04;100.00;103074.88;5071919;28;20079;-75
2023/05/17 06:57:21;;;;;;;19.70;12.48;;;;;;;16.45;100.00;103100.50;5051351;28;20118;-75
2023/05/17 06:59:47;;;;;;;21.38;13.10;;;;;;;16.20;100.00;103044.91;5052357;28;20049;-75
2023/05/17 07:02:12;;;;;;;19.77;12.68;;;;;;;16.11;100.00;103008.97;5051907;28;20051;-75
2023/05/17 07:04:38;;;;;;;16.67;11.85;;;;;;;16.48;100.00;103033.69;5051212;28;20040;-75
2023/05/17 07:07:04;;;;;;;17.40;12.55;;;;;;;16.49;100.00;103007.19;5051736;28;20036;-75
2023/05/17 07:09:29;;;;;;;19.27;12.43;;;;;;;16.93;100.00;103051.56;5052285;28;20045;-75
2023/05/17 07:11:54;;;;;;;16.98;11.48;;;;;;;16.36;100.00;102923.31;5052525;28;20469;-75
2023/05/17 07:14:20;;;;;;;22.00;11.98;;;;;;;16.52;100.00;102927.53;5051297;28;20032;-75
2023/05/17 07:16:46;;;;;;;17.10;11.35;;;;;;;16.80;100.00;102949.66;5052680;28;20498;-76
2023/05/17 07:19:12;;;;;;;17.85;10.88;;;;;;;16.40;100.00;102842.81;5052771;28;20056;-75
2023/05/17 07:21:37;;;;;;;18.42;10.88;;;;;;;17.20;100.00;102930.53;5051899;28;20411;-75
2023/05/17 07:24:03;;;;;;;15.23;9.32;;;;;;;17.12;100.00;102874.88;5051227;28;20037;-74
2023/05/17 07:26:28;;;;;;;16.67;9.65;;;;;;;17.02;100.00;102824.38;5051103;28;20032;-75
2023/05/17 07:28:53;;;;;;;14.15;9.98;;;;;;;17.19;100.00;102814.81;5051927;28;20041;-75
2023/05/17 07:31:19;;;;;;;17.70;8.60;;;;;;;16.58;100.00;102662.06;5051719;28;20138;-75
2023/05/17 07:33:44;;;;;;;18.35;8.95;;;;;;;16.97;100.00;102698.50;5034578;28;20039;-77
2023/05/17 07:36:10;;;;;;;15.52;8.05;;;;;;;17.23;100.00;102677.63;5051668;28;20095;-77
2023/05/17 07:38:36;;;;;;;14.05;8.30;;;;;;;17.13;100.00;102619.47;5051917;28;20458;-76
2023/05/17 07:41:02;;;;;;;11.90;8.13;;;;;;;17.01;100.00;102563.91;5034342;28;20029;-76
2023/05/17 07:43:28;;;;;;;17.17;8.30;;;;;;;17.00;100.00;102520.22;5052673;28;20029;-76
2023/05/17 07:45:54;;;;;;;13.73;8.43;;;;;;;17.11;100.00;102482.38;5052607;28;20526;-76
2023/05/17 07:48:19;;;;;;;16.70;8.80;;;;;;;16.94;100.00;102420.03;5052548;28;20037;-75
2023/05/17 07:50:45;;;;;;;14.13;8.43;;;;;;;17.20;100.00;102435.94;5052021;28;20044;-75
2023/05/17 07:53:11;;;;;;;11.45;7.47;;;;;;;17.19;100.00;102403.41;5034806;28;20439;-77
2023/05/17 07:55:36;;;;;;;13.50;7.93;;;;;;;16.91;100.00;102307.03;5052200;28;20122;-75
2023/05/17 07:58:02;;;;;;;14.65;8.63;;;;;;;17.23;100.00;102340.75;5052482;28;20025;-77
2023/05/17 08:00:28;;;;;;;15.63;8.02;;;;;;;17.03;100.00;102255.41;5051726;28;20052;-78
2023/05/17 08:02:53;;;;;;;13.07;8.07;;;;;;;17.78;100.00;102297.72;5056333;28;20024;-77
2023/05/17 08:05:19;;;;;;;11.65;8.15;;;;;;;17.68;100.00;102257.59;5057907;28;20063;-76
2023/05/17 08:07:44;;;;;;;16.83;8.02;;;;;;;17.67;100.00;102224.19;5057984;28;20125;-77
2023/05/17 08:10:10;;;;;;;14.07;8.23;;;;;;;17.40;100.00;102129.53;5041064;28;20037;-77
2023/05/17 08:12:35;;;;;;;14.32;8.77;;;;;;;17.68;100.00;102118.66;5040561;28;20051;-77
2023/05/17 08:15:01;;;;;;;14.63;8.88;;;;;;;17.94;100.00;102134.34;5058136;28;20029;-78
2023/05/17 08:17:26;;;;;;;15.75;9.02;;;;;;;17.99;100.00;102124.75;5040732;28;20408;-77
2023/05/17 08:19:51;;;;;;;11.70;8.57;;;;;;;17.52;100.00;102022.13;5058750;28;20028;-76
2023/05/17 08:22:18;;;;;;;14.75;8.35;;;;;;;17.66;100.00;102022.63;5058292;28;20484;-78
2023/05/17 08:24:46;;;;;;;16.02;9.05;;;;;;;17.51;100.00;101976.69;5058378;28;20037;-77
2023/05/17 08:27:11;;;;;;;17.48;8.40;;;;;;;17.49;100.00;101980.19;5041135;28;20040;-76
2023/05/17 08:29:36;;;;;;;13.75;7.60;;;;;;;17.53;100.00;101951.75;5058670;28;20033;-75
2023/05/17 08:32:02;;;;;;;13.05;8.18;;;;;;;17.45;100.00;101937.38;5058349;28;20051;-76
2023/05/17 08:34:28;;;;;;;17.80;8.30;;;;;;;17.22;100.00;101874.50;5040706;28;20029;-76
2023/05/17 08:36:54;;;;;;;15.27;7.72;;;;;;;17.18;100.00;101872.91;5057989;28;20036;-77
2023/05/17 08:39:20;;;;;;;12.75;8.00;;;;;;;16.78;100.00;101792.50;5058753;28;20028;-76
2023/05/17 08:41:46;;;;;;;17.95;8.90;;;;;;;17.04;100.00;101820.97;5058369;28;20445;-77
2023/05/17 08:44:13;;;;;;;15.93;8.68;;;;;;;16.97;100.00;101805.75;5057973;28;20060;-77
2023/05/17 08:46:40;;;;;;;16.50;8.60;;;;;;;17.00;100.00;101793.66;5040364;28;20033;-77
2023/05/17 08:49:06;;;;;;;18.33;9.63;;;;;;;17.05;100.00;101791.84;5058663;28;20479;-78
2023/05/17 08:51:31;;;;;;;14.48;9.35;;;;;;;16.99;100.00;101774.00;5056343;28;20051;-76
2023/05/17 08:53:57;;;;;;;17.48;9.95;;;;;;;16.47;100.00;101673.38;5058426;28;20043;-77
2023/05/17 08:56:24;;;;;;;18.80;10.40;;;;;;;16.73;100.00;101713.88;5057879;28;20060;-79
2023/05/17 08:58:55;;;;;;;20.23;11.38;;;;;;;16.78;100.00;101712.84;5059479;28;20032;-80
2023/05/17 09:01:20;;;;;;;17.80;11.40;;;;;;;16.99;100.00;101750.88;5057979;28;20041;-78
2023/05/17 09:03:48;;;;;;;17.67;11.55;;;;;;;16.92;100.00;101749.31;5057939;28;20037;-76
2023/05/17 09:06:23;;;;;;;21.33;11.70;;;;;;;16.66;100.00;101728.56;5040580;28;20171;-76
2023/05/17 09:08:51;;;;;;;17.33;9.98;;;;;;;16.20;100.00;101648.41;5057813;28;20029;-77
2023/05/17 09:11:31;;;;;;;19.67;10.18;;;;;;;16.80;100.00;101754.75;5057894;28;20033;-77
2023/05/17 09:14:02;;;;;;;17.85;9.32;;;;;;;16.83;100.00;101753.84;5039653;28;20032;-76
2023/05/17 09:16:29;;;;;;;20.70;10.18;;;;;;;16.51;100.00;101702.44;5056888;28;20131;-79
2023/05/17 09:18:59;;;;;;;19.67;10.38;;;;;;;16.43;100.00;101700.88;4869996;28;10000483;-78
2023/05/17 09:21:26;;;;;;;19.50;10.35;;;;;;;16.69;100.00;101756.78;5067543;28;20241;-80
2023/05/17 09:23:52;;;;;;;15.73;9.93;;;;;;;16.81;100.00;101764.19;5055528;28;20034;-80
2023/05/17 09:26:19;;;;;;;18.00;9.60;;;;;;;16.56;100.00;101719.41;5074181;28;20039;-77
2023/05/17 09:28:45;;;;;;;19.40;9.93;;;;;;;16.41;100.00;101720.59;5071083;28;20102;-77
2023/05/17 09:31:14;;;;;;;16.05;9.68;;;;;;;16.17;100.00;101692.09;5065752;28;20056;-77
2023/05/17 09:33:47;;;;;;;16.48;10.45;;;;;;;15.93;100.00;101664.41;5074929;28;20098;-76
2023/05/17 09:36:21;;;;;;;17.63;10.95;;;;;;;16.07;100.00;101696.59;5074842;28;20032;-74
2023/05/17 09:38:58;;;;;;;18.55;11.15;;;;;;;16.09;100.00;101723.06;5036847;28;20044;-74
2023/05/17 09:41:27;;;;;;;17.02;11.45;;;;;;;16.21;100.00;101758.72;5067403;28;20509;-80
2023/05/17 09:43:56;;;;;;;20.85;12.90;;;;;;;16.18;100.00;101786.19;5075677;28;20033;-85
2023/05/17 09:46:22;;;;;;;20.75;14.45;;;;;;;15.61;100.00;101735.22;5075185;28;20114;-81
2023/05/17 09:48:53;;;;;;;22.85;15.88;;;;;;;15.81;100.00;101844.25;5075044;28;20459;-79
2023/05/17 09:51:18;;;;;;;26.90;17.42;;;;;;;15.75;100.00;101940.13;5056565;28;20441;-79
2023/05/17 09:53:43;;;;;;;26.17;17.67;;;;;;;15.65;100.00;102079.63;5074040;28;20098;-79
2023/05/17 09:56:09;;;;;;;33.05;20.13;;;;;;;15.27;100.00;102208.31;5074535;28;20430;-78
2023/05/17 09:58:38;;;;;;;29.00;21.15;;;;;;;15.57;100.00;102487.50;5055821;28;20123;-80
2023/05/17 10:01:05;;;;;;;28.80;21.30;;;;;;;15.28;100.00;102706.44;5038818;28;20089;-78
2023/05/17 10:03:40;;;;;;;31.13;21.52;;;;;;;15.25;100.00;102979.03;5034302;28;20029;-78
2023/05/17 10:06:08;;;;;;;27.90;21.50;;;;;;;15.30;100.00;103161.94;5035147;28;20037;-79
2023/05/17 10:08:37;;;;;;;32.55;24.13;;;;;;;15.19;100.00;103212.31;5034896;28;20057;-79
2023/05/17 10:11:08;;;;;;;29.88;23.55;;;;;;;15.32;100.00;103257.69;5034768;28;20034;-80
2023/05/17 10:13:46;;;;;;;33.03;22.90;;;;;;;15.51;100.00;103274.91;5033151;28;20021;-80
2023/05/17 10:16:12;;;;;;;32.60;22.45;;;;;;;15.52;100.00;103229.59;5034808;28;20069;-78
2023/05/17 10:18:39;;;;;;;33.20;23.63;;;;;;;14.72;100.00;102990.88;5033333;28;20032;-77
2023/05/17 10:21:09;;;;;;;27.63;23.30;;;;;;;15.67;100.00;103096.22;5034566;28;20048;-77
2023/05/17 10:23:37;;;;;;;28.08;23.27;;;;;;;15.87;100.00;103061.19;5034550;28;20033;-77
2023/05/17 10:26:04;;;;;;;42.05;28.55;;;;;;;15.95;100.00;102974.78;5032450;28;20105;-76
2023/05/17 10:28:30;;;;;;;36.60;26.15;;;;;;;15.85;100.00;102687.38;5032245;28;20036;-78
2023/05/17 10:30:57;;;;;;;35.50;25.45;;;;;;;15.83;100.00;102584.78;5034357;28;20539;-76
2023/05/17 10:33:25;;;;;;;31.73;23.05;;;;;;;15.74;100.00;102418.13;5034376;28;20026;-77
2023/05/17 10:35:53;;;;;;;34.85;24.17;;;;;;;15.58;100.00;101130.22;5033235;28;20034;-78
2023/05/17 10:38:19;;;;;;;33.10;24.08;;;;;;;15.91;100.00;100909.47;5033853;28;20032;-79
2023/05/17 10:40:45;;;;;;;40.08;26.08;;;;;;;15.84;100.00;100387.47;5032720;28;20053;-77
2023/05/17 10:43:11;;;;;;;32.17;25.80;;;;;;;15.77;100.00;100416.84;5032458;28;20116;-77
2023/05/17 10:45:37;;;;;;;35.88;25.55;;;;;;;15.67;100.00;100485.59;5032568;28;20102;-78
2023/05/17 10:48:07;;;;;;;34.75;25.83;;;;;;;15.82;100.00;100564.47;5032749;28;20484;-78
2023/05/17 10:50:37;;;;;;;35.53;26.30;;;;;;;16.09;100.00;100670.25;5033590;28;20040;-78
2023/05/17 10:53:08;;;;;;;33.47;24.80;;;;;;;15.93;100.00;100713.59;5034500;28;20210;-77
2023/05/17 10:55:39;;;;;;;34.22;25.70;;;;;;;16.08;100.00;100735.28;5032876;28;20025;-77
2023/05/17 10:58:20;;;;;;;35.88;25.27;;;;;;;16.30;100.00;100766.94;5033135;28;20446;-76
2023/05/17 11:00:47;;;;;;;35.25;26.95;;;;;;;16.05;100.00;100766.16;5056816;28;20044;-76
2023/05/17 11:03:17;;;;;;;38.50;28.65;;;;;;;15.91;100.00;100779.50;5056070;28;20542;-78